Search for airport 
image banner adimage banner ad
image banner ad

LEADEM - Ademuz (forestal)

Located in , Spain

ICAO - , IATA -

Data provided by Airmate  

General information

Coordinates: N40°5'29" W1°12'38"
Elevation is 3970 feet MSL.
 
Rated:
View ratings: [VIEW]


View others Airports in Valencia

Operational data

Open for public use
Current time UTC:
Current local time:
Weather at : LETL - Teruel ( 36 km )
METAR: LETL 091430Z AUTO 08006KT 340V140 CAVOK 28/11 Q1020
View NOTAMs / SUP AIP / TFR affecting this airport [VIEW]
Communications frequencies: [VIEW]

Runways:

RWY identifierQFULength (ft)Width (ft)SurfaceLDA (ft)
11196959DIRT
29196959DIRT

Airport contact information

Address: Spain

Satellite view of LEADEM